Time;durP1;ratioP1;P1;durP2;ratioP2;P2;SDS_P1;SDS_P2;PMS_P1;PMS_P2;Temp;Humidity;BMP_temperature;BMP_pressure;BME280_temperature;BME280_humidity;BME280_pressure;Samples;Min_cycle;Max_cycle;Signal;HPM_P1;HPM_P2
2022/07/30 00:01:36;;;;;;;4.60;1.50;;;;;;;20.98;44.89;100477.89;109324;1263;21960;-75
2022/07/30 00:04:05;;;;;;;2.50;1.20;;;;;;;20.96;44.77;100476.44;109184;1264;23083;-77
2022/07/30 00:06:36;;;;;;;3.40;1.10;;;;;;;20.94;44.93;100473.02;109226;1263;21971;-82
2022/07/30 00:09:05;;;;;;;6.50;1.50;;;;;;;20.92;44.83;100472.13;108926;1270;22045;-77
2022/07/30 00:11:34;;;;;;;6.40;1.70;;;;;;;20.91;44.89;100468.38;108652;1275;21989;-77
2022/07/30 00:14:03;;;;;;;4.40;1.30;;;;;;;20.91;44.96;100466.66;108656;1276;21990;-77
2022/07/30 00:16:32;;;;;;;3.10;1.10;;;;;;;20.89;45.03;100464.90;108674;1273;22761;-77
2022/07/30 00:19:02;;;;;;;2.00;1.30;;;;;;;20.87;45.12;100463.95;108349;1278;21992;-77
2022/07/30 00:21:31;;;;;;;4.70;1.70;;;;;;;20.84;45.17;100462.96;108137;1283;22016;-77
2022/07/30 00:24:07;;;;;;;4.10;1.40;;;;;;;20.80;45.28;100462.65;108036;1282;22125;-75
2022/07/30 00:26:37;;;;;;;3.00;1.70;;;;;;;20.76;45.31;100462.44;108134;1276;23647;-77
2022/07/30 00:29:07;;;;;;;3.00;1.00;;;;;;;20.73;45.44;100466.50;108046;1276;22909;-75
2022/07/30 00:31:36;;;;;;;3.10;1.10;;;;;;;20.70;45.43;100463.53;108268;1279;22002;-77
2022/07/30 00:34:05;;;;;;;4.10;1.10;;;;;;;20.68;45.49;100460.80;108142;1276;21987;-77
2022/07/30 00:36:35;;;;;;;4.00;1.10;;;;;;;20.64;45.51;100455.77;108066;1282;23103;-78
2022/07/30 00:39:06;;;;;;;2.90;1.30;;;;;;;20.60;45.72;100449.98;108065;1276;23615;-77
2022/07/30 00:41:56;;;;;;;4.60;1.50;;;;;;;20.56;45.92;100444.94;108376;1277;23626;-77
2022/07/30 00:44:27;;;;;;;4.30;1.30;;;;;;;20.48;46.01;100440.06;108095;1279;22496;-77
2022/07/30 00:46:56;;;;;;;4.70;1.60;;;;;;;20.42;46.26;100435.66;108391;1276;21981;-77
2022/07/30 00:49:26;;;;;;;9.40;2.50;;;;;;;20.36;46.51;100435.78;108483;1276;23633;-78
2022/07/30 00:51:57;;;;;;;3.90;1.40;;;;;;;20.32;46.72;100435.69;108413;1276;22014;-78
2022/07/30 00:54:26;;;;;;;3.90;1.60;;;;;;;20.30;46.80;100429.50;108531;1270;22127;-77
2022/07/30 00:56:55;;;;;;;3.40;1.60;;;;;;;20.26;46.95;100427.33;108354;1276;22074;-78
2022/07/30 00:59:26;;;;;;;4.50;1.20;;;;;;;20.21;47.16;100430.77;108604;1275;23723;-78
2022/07/30 01:01:58;;;;;;;3.90;1.50;;;;;;;20.17;47.25;100425.98;108498;1270;21979;-79
2022/07/30 01:04:27;;;;;;;4.70;1.50;;;;;;;20.12;47.48;100427.04;108483;1273;23773;-77
2022/07/30 01:06:56;;;;;;;5.20;1.50;;;;;;;20.07;47.55;100427.52;108711;1272;21979;-77
2022/07/30 01:09:26;;;;;;;4.70;1.40;;;;;;;20.02;47.73;100423.22;108457;1276;22031;-77
2022/07/30 01:11:55;;;;;;;3.50;1.60;;;;;;;19.99;48.04;100416.38;107839;1283;22779;-77
2022/07/30 01:14:24;;;;;;;3.70;1.20;;;;;;;19.97;48.16;100414.17;107935;1279;22076;-77
2022/07/30 01:16:53;;;;;;;4.20;1.90;;;;;;;19.94;48.28;100411.91;108361;1279;22018;-77
2022/07/30 01:19:48;;;;;;;3.70;1.60;;;;;;;19.90;48.47;100413.37;108179;1279;22118;-77
2022/07/30 01:22:30;;;;;;;3.60;1.50;;;;;;;19.86;48.65;100415.77;108429;1276;23147;-77
2022/07/30 01:25:50;;;;;;;5.20;2.40;;;;;;;19.85;48.65;100416.90;108530;1275;22481;-76
2022/07/30 01:28:27;;;;;;;4.10;1.40;;;;;;;19.79;48.81;100411.66;108380;1276;23059;-77
2022/07/30 01:30:58;;;;;;;4.40;1.60;;;;;;;19.74;48.95;100408.87;108674;1270;23096;-77
2022/07/30 01:33:30;;;;;;;2.20;1.30;;;;;;;19.71;49.03;100404.05;108750;1273;23093;-77
2022/07/30 01:36:02;;;;;;;6.20;2.00;;;;;;;19.66;49.10;100396.08;108818;1270;22231;-77
2022/07/30 01:38:34;;;;;;;2.90;1.60;;;;;;;19.63;49.10;100392.56;108389;1276;21987;-76
2022/07/30 01:41:05;;;;;;;3.10;1.60;;;;;;;19.58;49.33;100387.65;108376;1279;22006;-78
2022/07/30 01:43:35;;;;;;;3.50;1.40;;;;;;;19.54;49.55;100390.27;108573;1279;24443;-77
2022/07/30 01:46:07;;;;;;;7.30;1.40;;;;;;;19.50;49.59;100391.72;108315;1279;23708;-77
2022/07/30 01:48:41;;;;;;;5.20;1.50;;;;;;;19.46;49.65;100389.84;108324;1279;22029;-77
2022/07/30 01:51:15;;;;;;;4.90;1.60;;;;;;;19.43;49.78;100390.23;108316;1279;21998;-77
2022/07/30 01:53:49;;;;;;;5.60;1.70;;;;;;;19.41;49.76;100392.58;108226;1279;22000;-77
2022/07/30 01:56:20;;;;;;;;;;;;;;;19.38;49.95;100390.84;108371;1276;23511;-78
2022/07/30 01:58:55;;;;;;;4.50;1.60;;;;;;;19.30;50.16;100391.56;108589;1270;22109;-76
2022/07/30 02:01:27;;;;;;;7.30;1.90;;;;;;;19.27;50.39;100390.85;108427;1276;22101;-77
2022/07/30 02:04:02;;;;;;;5.70;1.70;;;;;;;19.28;50.24;100392.14;108495;1276;22005;-78
2022/07/30 02:06:45;;;;;;;4.90;1.90;;;;;;;19.27;50.30;100392.67;108800;1267;23095;-78
2022/07/30 02:09:27;;;;;;;5.30;1.40;;;;;;;19.25;50.48;100391.81;108688;1273;23836;-77
2022/07/30 02:15:10;;;;;;;4.80;1.10;;;;;;;19.22;50.63;100396.92;108475;1273;22030;-78
2022/07/30 02:18:09;;;;;;;11.10;1.60;;;;;;;19.20;50.72;100396.81;108505;1274;22463;-78
2022/07/30 02:20:44;;;;;;;3.10;1.00;;;;;;;19.18;50.81;100399.14;108097;1279;23740;-77
2022/07/30 02:23:18;;;;;;;2.30;1.00;;;;;;;19.18;50.85;100401.73;107953;1285;22006;-78
2022/07/30 02:25:50;;;;;;;3.50;2.00;;;;;;;19.18;51.04;100398.20;108020;1279;22008;-77
2022/07/30 02:28:23;;;;;;;3.20;1.10;;;;;;;19.17;50.89;100395.37;108357;1276;22016;-76
2022/07/30 02:30:57;;;;;;;2.60;1.20;;;;;;;19.16;51.03;100395.13;108332;1279;22131;-76
2022/07/30 02:33:34;;;;;;;5.70;1.60;;;;;;;19.14;51.05;100391.61;108371;1279;22185;-76
2022/07/30 02:36:11;;;;;;;5.90;1.60;;;;;;;19.13;51.18;100389.48;107976;1282;23688;-76
2022/07/30 02:38:41;;;;;;;5.90;1.40;;;;;;;19.12;51.21;100389.94;107926;1285;22024;-79
2022/07/30 02:41:12;;;;;;;3.30;1.30;;;;;;;19.11;51.35;100391.40;107623;1285;23694;-76
2022/07/30 02:43:44;;;;;;;2.00;1.10;;;;;;;19.09;51.49;100389.20;107925;1285;22052;-77
2022/07/30 02:46:17;;;;;;;3.70;1.50;;;;;;;19.05;51.52;100388.98;107675;1286;22071;-77
2022/07/30 02:49:09;;;;;;;2.40;1.20;;;;;;;19.02;51.72;100386.38;107753;1281;22210;-77
2022/07/30 02:51:41;;;;;;;2.40;1.30;;;;;;;19.03;51.85;100378.84;108052;1282;21999;-77
2022/07/30 02:54:13;;;;;;;6.80;1.60;;;;;;;19.01;51.76;100374.20;108120;1278;22035;-77
2022/07/30 02:56:46;;;;;;;2.30;1.00;;;;;;;19.00;52.00;100374.42;108254;1279;22009;-77
2022/07/30 02:59:18;;;;;;;3.10;1.20;;;;;;;18.98;52.10;100371.57;108439;1273;22731;-78
2022/07/30 03:01:49;;;;;;;3.10;0.90;;;;;;;18.96;52.24;100370.83;108545;1270;22299;-77
2022/07/30 03:04:20;;;;;;;1.80;1.10;;;;;;;18.96;52.33;100364.29;108776;1270;24298;-77
2022/07/30 03:06:51;;;;;;;1.70;1.10;;;;;;;18.94;52.47;100363.33;108403;1275;23607;-76
2022/07/30 03:09:21;;;;;;;4.00;1.50;;;;;;;18.93;52.53;100361.93;108512;1273;23727;-77
2022/07/30 03:11:54;;;;;;;3.20;1.10;;;;;;;18.90;52.46;100359.09;108476;1276;22004;-76
2022/07/30 03:14:23;;;;;;;1.90;1.10;;;;;;;18.87;52.60;100362.59;108483;1274;22439;-76
2022/07/30 03:16:57;;;;;;;3.10;0.90;;;;;;;18.84;52.78;100357.67;108498;1270;21984;-76
2022/07/30 03:19:31;;;;;;;5.10;1.50;;;;;;;18.82;52.89;100357.52;108889;1270;21980;-77
2022/07/30 03:22:03;;;;;;;2.90;1.40;;;;;;;18.79;53.09;100356.61;108882;1270;23657;-77
2022/07/30 03:24:34;;;;;;;4.40;1.40;;;;;;;18.78;53.26;100358.39;109116;1262;22085;-77
2022/07/30 03:27:05;;;;;;;2.50;1.50;;;;;;;18.76;53.34;100345.77;109534;1262;22439;-76
2022/07/30 03:29:38;;;;;;;5.20;0.90;;;;;;;18.76;53.51;100347.66;109703;1261;22061;-76
2022/07/30 03:32:09;;;;;;;2.80;1.40;;;;;;;18.77;53.47;100347.98;109689;1263;22198;-76
2022/07/30 03:34:44;;;;;;;7.40;1.80;;;;;;;18.73;53.59;100346.31;109583;1263;23842;-77
2022/07/30 03:37:15;;;;;;;4.70;1.10;;;;;;;18.74;53.76;100342.65;109694;1262;21992;-76
2022/07/30 03:39:46;;;;;;;5.00;1.00;;;;;;;18.78;53.92;100341.96;109635;1263;22219;-77
2022/07/30 03:42:16;;;;;;;;;;;;;;;18.81;53.86;100339.05;109341;1261;21957;-78
2022/07/30 03:44:46;;;;;;;5.50;1.40;;;;;;;18.75;54.03;100338.45;109294;1261;23681;-77
2022/07/30 03:47:16;;;;;;;6.20;1.80;;;;;;;18.74;54.22;100338.90;108911;1267;21987;-77
2022/07/30 03:49:48;;;;;;;3.40;1.30;;;;;;;18.76;54.20;100343.45;108474;1273;22001;-76
2022/07/30 03:52:20;;;;;;;2.80;0.90;;;;;;;18.75;53.88;100344.98;108451;1273;22024;-77
2022/07/30 03:54:50;;;;;;;2.90;1.20;;;;;;;18.73;54.05;100343.64;108496;1273;23076;-77
2022/07/30 03:57:42;;;;;;;3.60;1.10;;;;;;;18.72;54.24;100337.89;108398;1280;22207;-77
2022/07/30 04:00:14;;;;;;;3.80;1.00;;;;;;;18.72;54.23;100336.48;108139;1279;23815;-78
2022/07/30 04:02:54;;;;;;;3.60;1.30;;;;;;;18.70;54.29;100336.45;108004;1280;23339;-75
2022/07/30 04:05:42;;;;;;;3.40;1.50;;;;;;;18.68;54.40;100338.11;107862;1282;22206;-74
2022/07/30 04:08:12;;;;;;;3.30;1.50;;;;;;;18.68;54.41;100334.63;108081;1280;23625;-78
2022/07/30 04:10:41;;;;;;;5.10;1.30;;;;;;;18.67;54.55;100334.55;108180;1280;23064;-78
2022/07/30 04:13:29;;;;;;;4.80;1.50;;;;;;;18.67;54.64;100337.27;108648;1275;22200;-77
2022/07/30 04:16:22;;;;;;;2.20;1.60;;;;;;;18.68;54.66;100341.16;108240;1279;22012;-76
2022/07/30 04:19:27;;;;;;;3.40;1.40;;;;;;;18.68;54.76;100344.79;108302;1279;23089;-76
2022/07/30 04:21:59;;;;;;;3.40;1.30;;;;;;;18.70;54.88;100344.40;108136;1279;21996;-76
2022/07/30 04:24:30;;;;;;;3.80;1.20;;;;;;;18.72;54.80;100348.05;108367;1276;22705;-76
2022/07/30 04:27:01;;;;;;;4.10;1.20;;;;;;;18.73;54.80;100350.48;108406;1275;22000;-76
2022/07/30 04:29:31;;;;;;;2.20;1.10;;;;;;;18.73;54.80;100348.87;108754;1273;22342;-76
2022/07/30 04:32:03;;;;;;;2.90;1.40;;;;;;;18.74;54.83;100343.45;108677;1273;22371;-77
2022/07/30 04:34:55;;;;;;;3.50;1.20;;;;;;;18.75;54.76;100339.48;108996;1264;23713;-76
2022/07/30 04:37:47;;;;;;;3.20;1.40;;;;;;;18.73;54.80;100336.81;109573;1262;22455;-77
2022/07/30 04:40:24;;;;;;;2.50;1.20;;;;;;;18.70;54.74;100338.31;109365;1261;23045;-76
2022/07/30 04:42:56;;;;;;;3.80;1.40;;;;;;;18.67;54.80;100336.48;108826;1270;23599;-75
2022/07/30 04:45:26;;;;;;;3.80;1.60;;;;;;;18.63;54.99;100339.19;108863;1270;23325;-76
2022/07/30 04:47:58;;;;;;;3.20;1.20;;;;;;;18.62;55.15;100337.49;108856;1270;21994;-77
2022/07/30 04:50:46;;;;;;;5.80;3.10;;;;;;;18.63;55.15;100340.64;108867;1270;23612;-76
2022/07/30 04:53:20;;;;;;;2.30;1.40;;;;;;;18.64;55.13;100338.66;108829;1270;22856;-77
2022/07/30 04:55:56;;;;;;;5.60;3.00;;;;;;;18.66;55.21;100340.29;108888;1270;22446;-76
2022/07/30 04:58:31;;;;;;;5.30;2.10;;;;;;;18.69;55.24;100339.09;108851;1270;21996;-76
2022/07/30 05:01:01;;;;;;;3.70;1.50;;;;;;;18.70;55.25;100335.52;109136;1263;22008;-76
2022/07/30 05:03:33;;;;;;;3.40;1.70;;;;;;;18.71;55.21;100335.83;109589;1263;22774;-76
2022/07/30 05:06:05;;;;;;;6.00;1.90;;;;;;;18.71;55.23;100333.77;109615;1262;23111;-77
2022/07/30 05:08:39;;;;;;;3.30;1.70;;;;;;;18.70;55.20;100328.48;109115;1267;21988;-74
2022/07/30 05:11:12;;;;;;;3.40;1.80;;;;;;;18.69;55.23;100327.11;109200;1268;21988;-76
2022/07/30 05:13:47;;;;;;;3.00;1.30;;;;;;;18.72;55.38;100326.41;108670;1273;22003;-76
2022/07/30 05:16:20;;;;;;;2.60;1.60;;;;;;;18.74;55.38;100326.22;108500;1273;22440;-76
2022/07/30 05:18:49;;;;;;;5.80;1.80;;;;;;;18.76;55.38;100326.13;108187;1279;21991;-76
2022/07/30 05:21:23;;;;;;;4.90;1.40;;;;;;;18.78;55.37;100326.02;108187;1277;22002;-76
2022/07/30 05:24:04;;;;;;;4.50;1.90;;;;;;;18.82;55.49;100331.05;108372;1278;22997;-76
2022/07/30 05:26:41;;;;;;;3.30;1.40;;;;;;;18.88;55.56;100334.40;108443;1272;22458;-77
2022/07/30 05:29:11;;;;;;;3.90;1.90;;;;;;;18.97;55.51;100332.02;108439;1272;22411;-77
2022/07/30 05:32:14;;;;;;;3.00;1.20;;;;;;;19.07;55.59;100327.38;108524;1273;22001;-77
2022/07/30 05:34:48;;;;;;;3.30;1.40;;;;;;;19.17;55.50;100330.90;108738;1273;22311;-76
2022/07/30 05:37:22;;;;;;;3.30;1.60;;;;;;;19.21;55.09;100331.95;108628;1270;21983;-76
2022/07/30 05:39:52;;;;;;;3.70;1.20;;;;;;;19.21;55.15;100331.98;108692;1273;24566;-76
2022/07/30 05:42:50;;;;;;;3.20;1.70;;;;;;;19.21;54.95;100330.69;108485;1275;22855;-77
2022/07/30 05:45:23;;;;;;;4.50;1.60;;;;;;;19.23;55.30;100322.45;108685;1273;23610;-76
2022/07/30 05:47:52;;;;;;;4.30;1.70;;;;;;;19.32;55.26;100323.38;108429;1276;22118;-78
2022/07/30 05:50:24;;;;;;;;;;;;;;;19.35;54.90;100320.52;108467;1276;22255;-76
2022/07/30 05:52:54;;;;;;;7.20;1.80;;;;;;;19.33;55.14;100323.48;108437;1276;21989;-77
2022/07/30 05:55:59;;;;;;;3.40;1.60;;;;;;;19.36;55.13;100329.50;108063;1279;21988;-77
2022/07/30 05:58:46;;;;;;;2.80;1.40;;;;;;;19.42;55.12;100341.09;108592;1273;23640;-77
2022/07/30 06:01:20;;;;;;;2.20;1.50;;;;;;;19.41;54.73;100340.89;108515;1273;22441;-77
2022/07/30 06:03:50;;;;;;;2.40;1.50;;;;;;;19.37;54.91;100342.77;108630;1273;23089;-79
2022/07/30 06:06:43;;;;;;;3.10;1.70;;;;;;;19.33;55.17;100345.44;108793;1270;22040;-75
2022/07/30 06:09:13;;;;;;;3.80;1.40;;;;;;;19.33;55.42;100341.89;108904;1270;23773;-76
2022/07/30 06:11:42;;;;;;;3.00;1.70;;;;;;;19.38;55.68;100343.70;108776;1270;21990;-74
2022/07/30 06:14:11;;;;;;;4.60;2.60;;;;;;;19.43;55.76;100339.48;108895;1270;22009;-76
2022/07/30 06:16:41;;;;;;;3.90;1.70;;;;;;;19.49;55.93;100334.77;108992;1267;21988;-76
2022/07/30 06:19:10;;;;;;;5.10;1.70;;;;;;;19.55;55.83;100336.27;108958;1267;22089;-75
2022/07/30 06:21:47;;;;;;;3.20;1.90;;;;;;;19.52;55.76;100333.41;109552;1263;22130;-75
2022/07/30 06:24:36;;;;;;;3.40;1.70;;;;;;;19.53;55.98;100334.14;109303;1263;22060;-74
2022/07/30 06:27:10;;;;;;;4.50;2.20;;;;;;;19.56;56.08;100338.88;109740;1263;23687;-74
2022/07/30 06:29:41;;;;;;;4.00;1.80;;;;;;;19.58;55.94;100340.91;109488;1263;22449;-75
2022/07/30 06:32:10;;;;;;;5.30;4.10;;;;;;;19.58;55.99;100343.85;109000;1269;22054;-74
2022/07/30 06:34:39;;;;;;;3.50;1.50;;;;;;;19.61;56.14;100347.09;108889;1269;22011;-76
2022/07/30 06:37:08;;;;;;;4.30;1.90;;;;;;;19.65;56.11;100342.83;108906;1269;21991;-74
2022/07/30 06:39:37;;;;;;;4.10;2.20;;;;;;;19.67;56.17;100340.91;108936;1269;21992;-77
2022/07/30 06:42:45;;;;;;;5.20;1.90;;;;;;;19.66;56.24;100333.91;108982;1267;22777;-76
2022/07/30 06:45:34;;;;;;;6.00;2.10;;;;;;;19.66;56.28;100333.77;108908;1269;23629;-74
2022/07/30 06:48:29;;;;;;;3.80;1.60;;;;;;;19.66;56.28;100329.95;108880;1269;23052;-74
2022/07/30 06:50:59;;;;;;;4.00;2.30;;;;;;;19.68;56.54;100330.02;109141;1266;23605;-74
2022/07/30 06:53:29;;;;;;;3.00;2.00;;;;;;;19.72;56.51;100325.30;109283;1263;23789;-75
2022/07/30 06:56:33;;;;;;;5.60;2.00;;;;;;;19.77;56.56;100325.89;108767;1269;21976;-73
2022/07/30 06:59:05;;;;;;;;;;;;;;;19.79;56.32;100326.02;108536;1275;22052;-76
2022/07/30 07:01:53;;;;;;;8.10;2.20;;;;;;;19.74;56.42;100326.30;108680;1273;23078;-75
2022/07/30 07:04:25;;;;;;;5.20;2.10;;;;;;;19.76;56.43;100326.73;108493;1273;22090;-77
2022/07/30 07:06:56;;;;;;;3.70;1.80;;;;;;;19.81;56.41;100328.45;108440;1276;22034;-77
2022/07/30 07:09:41;;;;;;;4.20;2.50;;;;;;;19.84;56.41;100327.63;108380;1276;22632;-77
2022/07/30 07:12:50;;;;;;;4.10;2.40;;;;;;;19.84;56.45;100328.05;107709;1285;22022;-77
2022/07/30 07:15:21;;;;;;;4.40;1.90;;;;;;;19.82;56.53;100329.36;107866;1285;22087;-77
2022/07/30 07:18:07;;;;;;;3.30;2.00;;;;;;;19.83;56.60;100324.22;107871;1282;22000;-75
2022/07/30 07:20:39;;;;;;;5.10;2.00;;;;;;;19.84;56.57;100324.41;107929;1282;22016;-77
2022/07/30 07:23:08;;;;;;;5.40;2.00;;;;;;;19.83;56.31;100315.89;107748;1282;23795;-76
2022/07/30 07:25:41;;;;;;;6.60;2.20;;;;;;;19.78;56.28;100311.93;107956;1282;22249;-78
2022/07/30 07:28:10;;;;;;;2.70;1.80;;;;;;;19.77;56.72;100311.04;108004;1279;22535;-76
2022/07/30 07:30:44;;;;;;;6.60;1.90;;;;;;;19.79;57.01;100314.20;108261;1270;22479;-75
2022/07/30 07:33:13;;;;;;;4.80;1.80;;;;;;;19.83;57.15;100310.94;108733;1270;22063;-75
2022/07/30 07:35:44;;;;;;;4.40;2.10;;;;;;;19.86;57.01;100303.60;108890;1270;23697;-77
2022/07/30 07:38:30;;;;;;;5.30;1.90;;;;;;;19.84;57.07;100304.38;108638;1275;22016;-76
2022/07/30 07:40:59;;;;;;;5.60;1.90;;;;;;;19.81;57.03;100298.88;108195;1279;22002;-76
2022/07/30 07:43:29;;;;;;;4.70;2.00;;;;;;;19.81;57.21;100298.02;108122;1279;23231;-75
2022/07/30 07:45:59;;;;;;;6.90;1.90;;;;;;;19.82;57.27;100294.02;108170;1279;21997;-75
2022/07/30 07:48:34;;;;;;;4.90;2.90;;;;;;;19.83;57.29;100292.43;108398;1273;23718;-76
2022/07/30 07:51:29;;;;;;;6.70;2.10;;;;;;;19.87;57.51;100284.48;108684;1273;23796;-77
2022/07/30 07:54:16;;;;;;;6.10;2.40;;;;;;;19.94;57.52;100281.56;108677;1273;23849;-76
2022/07/30 07:56:51;;;;;;;3.30;2.10;;;;;;;19.99;57.44;100279.09;108723;1267;23647;-76
2022/07/30 07:59:26;;;;;;;3.50;2.40;;;;;;;20.04;57.47;100282.20;109056;1267;22002;-77
2022/07/30 08:02:09;;;;;;;3.50;2.20;;;;;;;20.06;57.50;100279.84;108751;1270;23055;-76
2022/07/30 08:04:50;;;;;;;5.00;2.60;;;;;;;20.07;57.75;100282.23;108865;1267;23335;-76
2022/07/30 08:07:44;;;;;;;3.60;2.50;;;;;;;20.07;57.76;100283.17;109117;1266;22033;-76
2022/07/30 08:10:32;;;;;;;4.20;2.60;;;;;;;20.03;57.88;100280.75;108844;1273;21989;-76
2022/07/30 08:13:20;;;;;;;3.60;2.60;;;;;;;19.94;58.20;100275.77;108753;1272;23612;-76
2022/07/30 08:16:27;;;;;;;4.60;2.60;;;;;;;19.86;58.79;100279.15;108744;1273;22839;-76
2022/07/30 08:19:15;;;;;;;4.90;2.40;;;;;;;19.79;59.21;100278.02;108385;1276;22078;-76
2022/07/30 08:21:51;;;;;;;4.40;3.10;;;;;;;19.73;59.87;100274.44;108738;1273;22244;-75
2022/07/30 08:24:22;;;;;;;;;;;;;;;19.73;60.35;100273.36;108781;1273;22865;-75
2022/07/30 08:26:51;;;;;;;8.60;3.30;;;;;;;19.65;60.59;100277.30;108762;1273;22076;-76
2022/07/30 08:29:20;;;;;;;7.30;3.50;;;;;;;19.63;60.82;100278.77;109077;1267;21966;-76
2022/07/30 08:31:50;;;;;;;6.70;3.60;;;;;;;19.62;60.87;100278.48;109041;1267;22049;-75
2022/07/30 08:34:22;;;;;;;6.70;2.60;;;;;;;19.62;61.20;100278.59;108960;1267;22068;-76
2022/07/30 08:36:54;;;;;;;3.60;2.50;;;;;;;19.60;61.49;100279.23;109368;1261;23085;-76
2022/07/30 08:39:26;;;;;;;4.70;2.90;;;;;;;19.57;61.73;100278.89;109559;1262;23038;-76
2022/07/30 08:41:56;;;;;;;4.90;2.60;;;;;;;19.53;61.85;100276.09;109642;1262;21971;-76
2022/07/30 08:44:27;;;;;;;6.60;3.40;;;;;;;19.46;62.27;100273.40;109418;1262;23067;-76
2022/07/30 08:47:00;;;;;;;7.70;6.20;;;;;;;19.42;62.78;100266.00;109803;1261;23770;-76
2022/07/30 08:49:50;;;;;;;5.20;3.10;;;;;;;19.40;63.32;100266.27;109689;1261;21973;-75
2022/07/30 08:52:23;;;;;;;5.00;3.20;;;;;;;19.37;63.64;100263.35;108872;1270;21983;-75
2022/07/30 08:55:01;;;;;;;4.50;3.40;;;;;;;19.35;64.01;100267.59;108870;1270;22842;-76
2022/07/30 08:57:33;;;;;;;4.30;2.90;;;;;;;19.33;64.42;100272.27;108517;1273;22224;-76
2022/07/30 09:00:09;;;;;;;6.90;3.60;;;;;;;19.33;64.90;100273.54;108497;1273;22004;-77
2022/07/30 09:02:38;;;;;;;4.30;3.10;;;;;;;19.34;65.14;100274.96;108503;1273;21994;-75
2022/07/30 09:05:10;;;;;;;4.10;3.20;;;;;;;19.34;65.40;100274.96;108621;1273;23068;-76
2022/07/30 09:07:40;;;;;;;4.30;2.80;;;;;;;19.34;65.53;100275.65;108455;1277;21986;-76
2022/07/30 09:10:13;;;;;;;4.50;3.30;;;;;;;19.34;65.66;100275.96;108480;1273;21994;-76
2022/07/30 09:12:47;;;;;;;4.70;3.70;;;;;;;19.36;65.83;100276.56;108822;1270;23622;-76
2022/07/30 09:15:20;;;;;;;4.80;3.30;;;;;;;19.41;66.02;100275.52;108844;1267;21984;-76
2022/07/30 09:17:55;;;;;;;3.90;3.40;;;;;;;19.47;65.98;100273.62;109053;1267;24446;-76
2022/07/30 09:20:34;;;;;;;6.70;4.50;;;;;;;19.53;66.00;100278.25;108934;1268;21995;-76
2022/07/30 09:23:07;;;;;;;4.00;3.00;;;;;;;19.58;65.83;100280.11;109090;1267;21957;-77
2022/07/30 09:26:00;;;;;;;4.50;3.50;;;;;;;19.59;65.63;100281.13;109135;1263;21984;-77
2022/07/30 09:28:44;;;;;;;6.40;4.10;;;;;;;19.61;65.60;100274.23;109300;1263;21979;-77
2022/07/30 09:31:59;;;;;;;7.60;3.20;;;;;;;19.66;65.65;100277.38;109266;1262;21985;-76
2022/07/30 09:34:49;;;;;;;7.20;3.50;;;;;;;19.67;65.35;100279.97;109565;1263;22030;-75
2022/07/30 09:37:59;;;;;;;4.60;3.10;;;;;;;19.68;65.62;100275.08;109406;1263;23590;-76
2022/07/30 09:40:55;;;;;;;5.60;4.00;;;;;;;19.76;65.87;100273.16;109507;1263;21994;-76
2022/07/30 09:43:42;;;;;;;;;;;;;;;19.84;65.78;100274.71;109735;1262;22023;-75
2022/07/30 09:46:16;;;;;;;3.40;2.80;;;;;;;19.83;65.58;100279.15;109228;1267;21983;-76
2022/07/30 09:48:45;;;;;;;5.60;4.20;;;;;;;19.84;65.21;100281.64;109044;1267;21983;-76
2022/07/30 09:51:14;;;;;;;3.90;3.10;;;;;;;19.89;65.33;100283.59;109007;1267;23686;-75
2022/07/30 09:54:00;;;;;;;5.00;3.80;;;;;;;19.94;65.03;100283.86;108938;1267;21977;-75
2022/07/30 09:57:04;;;;;;;4.30;3.10;;;;;;;19.95;64.96;100278.33;109202;1267;23617;-75
2022/07/30 09:59:51;;;;;;;5.70;3.80;;;;;;;20.04;65.31;100280.58;108930;1267;22373;-76
2022/07/30 10:02:31;;;;;;;5.90;3.70;;;;;;;20.18;65.39;100278.31;109050;1267;23759;-76
2022/07/30 10:05:27;;;;;;;5.90;3.50;;;;;;;20.36;65.09;100274.22;109108;1267;22456;-73
2022/07/30 10:08:08;;;;;;;5.70;4.80;;;;;;;20.57;65.11;100272.48;108745;1273;23009;-75
2022/07/30 10:10:48;;;;;;;7.40;4.00;;;;;;;20.79;64.17;100272.92;108584;1273;22003;-80
2022/07/30 10:13:19;;;;;;;6.40;3.60;;;;;;;20.95;63.68;100273.36;108544;1270;21982;-76
2022/07/30 10:15:50;;;;;;;6.60;3.60;;;;;;;21.11;63.15;100273.23;108795;1272;23972;-77
2022/07/30 10:18:21;;;;;;;6.20;3.70;;;;;;;21.26;62.53;100268.20;108488;1276;23981;-77
2022/07/30 10:21:25;;;;;;;5.60;3.20;;;;;;;21.40;61.83;100272.52;108620;1276;22047;-75
2022/07/30 10:24:24;;;;;;;5.00;2.90;;;;;;;21.49;61.23;100272.90;108429;1276;22016;-74
2022/07/30 10:27:19;;;;;;;7.20;2.70;;;;;;;21.50;60.44;100273.73;108672;1272;21991;-74
2022/07/30 10:30:21;;;;;;;4.80;3.80;;;;;;;21.46;60.28;100273.56;108896;1270;21979;-74
2022/07/30 10:32:58;;;;;;;8.20;3.40;;;;;;;21.47;59.87;100278.46;108883;1271;23567;-74
2022/07/30 10:35:29;;;;;;;6.10;2.90;;;;;;;21.38;59.62;100274.58;108895;1270;22027;-75
2022/07/30 10:38:13;;;;;;;7.10;3.60;;;;;;;21.31;60.02;100273.25;108900;1267;22846;-80
2022/07/30 10:41:13;;;;;;;8.20;4.70;;;;;;;21.28;60.05;100272.45;108629;1273;23599;-76
2022/07/30 10:44:50;;;;;;;7.80;4.30;;;;;;;21.23;60.19;100268.96;108440;1279;22124;-78
2022/07/30 10:47:24;;;;;;;5.70;3.00;;;;;;;21.22;60.54;100266.84;108479;1280;24360;-79
2022/07/30 10:50:18;;;;;;;4.30;2.90;;;;;;;21.23;60.22;100263.75;108424;1282;22049;-78
2022/07/30 10:52:57;;;;;;;6.30;2.50;;;;;;;21.18;60.07;100260.97;107926;1285;23600;-78
2022/07/30 10:55:40;;;;;;;4.00;2.70;;;;;;;21.11;60.15;100260.41;107554;1287;23205;-78
2022/07/30 10:58:14;;;;;;;5.00;3.00;;;;;;;21.04;60.42;100259.36;107576;1288;22502;-78
2022/07/30 11:01:05;;;;;;;5.40;3.20;;;;;;;20.95;60.48;100257.52;107152;1290;22125;-79
2022/07/30 11:04:25;;;;;;;5.50;3.00;;;;;;;20.87;60.68;100255.85;107039;1293;22049;-77
2022/07/30 11:07:27;;;;;;;5.50;3.70;;;;;;;20.76;61.01;100254.45;107716;1289;22023;-77
2022/07/30 11:10:00;;;;;;;8.50;4.20;;;;;;;20.64;61.72;100248.95;107546;1289;22089;-77
2022/07/30 11:12:56;;;;;;;5.50;3.50;;;;;;;20.47;62.27;100245.61;107626;1287;23837;-77
2022/07/30 11:15:58;;;;;;;9.00;3.50;;;;;;;20.23;63.30;100246.13;108167;1282;22330;-77
2022/07/30 11:18:28;;;;;;;6.30;3.90;;;;;;;20.00;64.45;100249.24;108114;1273;23046;-77
2022/07/30 11:21:13;;;;;;;8.60;4.50;;;;;;;19.88;65.32;100248.05;108643;1273;22024;-76
2022/07/30 11:23:53;;;;;;;7.40;3.60;;;;;;;19.78;65.82;100245.08;109242;1263;22060;-78
2022/07/30 11:26:45;;;;;;;5.80;4.30;;;;;;;19.71;66.46;100251.94;109529;1262;22973;-77
2022/07/30 11:29:47;;;;;;;4.10;3.70;;;;;;;19.68;67.01;100250.47;109614;1263;23593;-77
2022/07/30 11:32:28;;;;;;;5.90;3.50;;;;;;;19.62;67.39;100250.89;108854;1270;23627;-77
2022/07/30 11:35:29;;;;;;;5.60;3.60;;;;;;;19.59;67.52;100254.17;108759;1270;23699;-77
2022/07/30 11:38:06;;;;;;;6.90;3.30;;;;;;;19.51;67.45;100255.64;108747;1270;21978;-77
2022/07/30 11:41:04;;;;;;;5.80;3.80;;;;;;;19.45;67.51;100250.54;108862;1270;24233;-76
2022/07/30 11:43:35;;;;;;;6.10;3.20;;;;;;;19.43;67.55;100252.30;108824;1269;22769;-76
2022/07/30 11:46:24;;;;;;;5.50;3.30;;;;;;;19.42;67.58;100253.38;108896;1270;23076;-75
2022/07/30 11:49:07;;;;;;;4.30;3.80;;;;;;;19.42;67.54;100255.29;108588;1273;24198;-76
2022/07/30 11:51:42;;;;;;;3.30;3.00;;;;;;;19.40;67.52;100256.46;108439;1273;22189;-76
2022/07/30 11:54:14;;;;;;;5.10;3.40;;;;;;;19.37;67.47;100255.39;108504;1272;23598;-76
2022/07/30 11:56:59;;;;;;;4.90;4.10;;;;;;;19.39;67.93;100256.12;108044;1279;396740;-76
2022/07/30 11:59:55;;;;;;;7.90;7.10;;;;;;;19.42;67.89;100256.42;108356;1279;22145;-76
2022/07/30 12:02:28;;;;;;;7.00;3.90;;;;;;;19.42;67.97;100256.64;108365;1279;23702;-76
2022/07/30 12:04:57;;;;;;;3.90;3.50;;;;;;;19.40;67.91;100263.44;108362;1279;23842;-76
2022/07/30 12:07:28;;;;;;;5.00;3.70;;;;;;;19.39;68.14;100263.73;108333;1273;22034;-76
2022/07/30 12:10:21;;;;;;;4.70;3.80;;;;;;;19.42;68.69;100262.16;108490;1273;21988;-77
2022/07/30 12:13:26;;;;;;;4.60;3.60;;;;;;;19.44;68.59;100265.59;108504;1271;22017;-75